sensor_id;sensor_type;location;lat;lon;timestamp;temperature;humidity
56044;DHT22;41912;51.022;3.664;2024-02-21T00:01:40;10.90;99.90
56044;DHT22;41912;51.022;3.664;2024-02-21T00:04:05;10.90;99.90
56044;DHT22;41912;51.022;3.664;2024-02-21T00:06:31;10.90;99.90
56044;DHT22;41912;51.022;3.664;2024-02-21T00:08:58;10.80;99.90
56044;DHT22;41912;51.022;3.664;2024-02-21T00:11:23;10.90;99.90
56044;DHT22;41912;51.022;3.664;2024-02-21T00:13:49;10.90;99.90
56044;DHT22;41912;51.022;3.664;2024-02-21T00:16:16;10.90;99.90
56044;DHT22;41912;51.022;3.664;2024-02-21T00:18:43;10.90;99.90
56044;DHT22;41912;51.022;3.664;2024-02-21T00:21:08;10.80;99.90
56044;DHT22;41912;51.022;3.664;2024-02-21T00:23:34;10.70;99.90
56044;DHT22;41912;51.022;3.664;2024-02-21T00:26:00;10.70;99.90
56044;DHT22;41912;51.022;3.664;2024-02-21T00:28:25;10.70;99.90
56044;DHT22;41912;51.022;3.664;2024-02-21T00:30:51;10.70;99.90
56044;DHT22;41912;51.022;3.664;2024-02-21T00:33:18;10.60;99.90
56044;DHT22;41912;51.022;3.664;2024-02-21T00:35:44;10.60;99.90
56044;DHT22;41912;51.022;3.664;2024-02-21T00:38:10;10.60;99.90
56044;DHT22;41912;51.022;3.664;2024-02-21T00:40:35;10.60;99.90
56044;DHT22;41912;51.022;3.664;2024-02-21T00:43:01;10.50;99.90
56044;DHT22;41912;51.022;3.664;2024-02-21T00:45:27;10.50;99.90
56044;DHT22;41912;51.022;3.664;2024-02-21T00:47:52;10.50;99.90
56044;DHT22;41912;51.022;3.664;2024-02-21T00:50:18;10.50;99.90
56044;DHT22;41912;51.022;3.664;2024-02-21T00:52:44;10.50;99.90
56044;DHT22;41912;51.022;3.664;2024-02-21T00:55:10;10.50;99.90
56044;DHT22;41912;51.022;3.664;2024-02-21T00:57:35;10.50;99.90
56044;DHT22;41912;51.022;3.664;2024-02-21T01:00:03;10.50;99.90
56044;DHT22;41912;51.022;3.664;2024-02-21T01:02:29;10.50;99.90
56044;DHT22;41912;51.022;3.664;2024-02-21T01:04:57;10.50;99.90
56044;DHT22;41912;51.022;3.664;2024-02-21T01:07:23;10.50;99.90
56044;DHT22;41912;51.022;3.664;2024-02-21T01:09:50;10.50;99.90
56044;DHT22;41912;51.022;3.664;2024-02-21T01:12:16;10.40;99.90
56044;DHT22;41912;51.022;3.664;2024-02-21T01:14:42;10.40;99.90
56044;DHT22;41912;51.022;3.664;2024-02-21T01:17:08;10.40;99.90
56044;DHT22;41912;51.022;3.664;2024-02-21T01:19:34;10.50;99.90
56044;DHT22;41912;51.022;3.664;2024-02-21T01:21:59;10.40;99.90
56044;DHT22;41912;51.022;3.664;2024-02-21T01:24:25;10.50;99.90
56044;DHT22;41912;51.022;3.664;2024-02-21T01:26:51;10.40;99.90
56044;DHT22;41912;51.022;3.664;2024-02-21T01:29:16;10.50;99.90
56044;DHT22;41912;51.022;3.664;2024-02-21T01:31:42;10.50;99.90
56044;DHT22;41912;51.022;3.664;2024-02-21T01:34:08;10.50;99.90
56044;DHT22;41912;51.022;3.664;2024-02-21T01:36:33;10.50;99.90
56044;DHT22;41912;51.022;3.664;2024-02-21T01:38:59;10.50;99.90
56044;DHT22;41912;51.022;3.664;2024-02-21T01:41:25;10.40;99.90
56044;DHT22;41912;51.022;3.664;2024-02-21T01:43:50;10.40;99.90
56044;DHT22;41912;51.022;3.664;2024-02-21T01:46:16;10.30;99.90
56044;DHT22;41912;51.022;3.664;2024-02-21T01:48:42;10.30;99.90
56044;DHT22;41912;51.022;3.664;2024-02-21T01:51:08;10.20;99.90
56044;DHT22;41912;51.022;3.664;2024-02-21T01:53:40;10.30;99.90
56044;DHT22;41912;51.022;3.664;2024-02-21T01:56:08;10.30;99.90
56044;DHT22;41912;51.022;3.664;2024-02-21T01:58:36;10.30;99.90
56044;DHT22;41912;51.022;3.664;2024-02-21T02:01:02;10.20;99.90
56044;DHT22;41912;51.022;3.664;2024-02-21T02:03:28;10.20;99.90
56044;DHT22;41912;51.022;3.664;2024-02-21T02:05:55;10.20;99.90
56044;DHT22;41912;51.022;3.664;2024-02-21T02:08:21;10.20;99.90
56044;DHT22;41912;51.022;3.664;2024-02-21T02:10:50;10.30;99.90
56044;DHT22;41912;51.022;3.664;2024-02-21T02:13:15;10.30;99.90
56044;DHT22;41912;51.022;3.664;2024-02-21T02:15:46;10.30;99.90
56044;DHT22;41912;51.022;3.664;2024-02-21T02:18:13;10.30;99.90
56044;DHT22;41912;51.022;3.664;2024-02-21T02:20:40;10.30;99.90
56044;DHT22;41912;51.022;3.664;2024-02-21T02:23:27;10.30;99.90
56044;DHT22;41912;51.022;3.664;2024-02-21T02:25:53;10.30;99.90
56044;DHT22;41912;51.022;3.664;2024-02-21T02:28:19;10.30;99.90
56044;DHT22;41912;51.022;3.664;2024-02-21T02:30:45;10.20;99.90
56044;DHT22;41912;51.022;3.664;2024-02-21T02:33:11;10.30;99.90
56044;DHT22;41912;51.022;3.664;2024-02-21T02:35:37;10.20;99.90
56044;DHT22;41912;51.022;3.664;2024-02-21T02:38:03;10.20;99.90
56044;DHT22;41912;51.022;3.664;2024-02-21T02:40:30;10.20;99.90
56044;DHT22;41912;51.022;3.664;2024-02-21T02:42:55;10.20;99.90
56044;DHT22;41912;51.022;3.664;2024-02-21T02:45:22;10.20;99.90
56044;DHT22;41912;51.022;3.664;2024-02-21T02:47:54;10.20;99.90
56044;DHT22;41912;51.022;3.664;2024-02-21T02:50:20;10.20;99.90
56044;DHT22;41912;51.022;3.664;2024-02-21T02:52:46;10.20;99.90
56044;DHT22;41912;51.022;3.664;2024-02-21T02:55:12;10.10;99.90
56044;DHT22;41912;51.022;3.664;2024-02-21T02:57:38;10.10;99.90
56044;DHT22;41912;51.022;3.664;2024-02-21T03:00:04;10.10;99.90
56044;DHT22;41912;51.022;3.664;2024-02-21T03:02:32;10.00;99.90
56044;DHT22;41912;51.022;3.664;2024-02-21T03:04:57;10.00;99.90
56044;DHT22;41912;51.022;3.664;2024-02-21T03:07:24;10.00;99.90
56044;DHT22;41912;51.022;3.664;2024-02-21T03:09:50;10.00;99.90
56044;DHT22;41912;51.022;3.664;2024-02-21T03:12:16;10.00;99.90
56044;DHT22;41912;51.022;3.664;2024-02-21T03:14:50;10.00;99.90
56044;DHT22;41912;51.022;3.664;2024-02-21T03:17:16;10.00;99.90
56044;DHT22;41912;51.022;3.664;2024-02-21T03:19:41;10.00;99.90
56044;DHT22;41912;51.022;3.664;2024-02-21T03:22:07;10.00;99.90
56044;DHT22;41912;51.022;3.664;2024-02-21T03:24:33;10.00;99.90
56044;DHT22;41912;51.022;3.664;2024-02-21T03:26:59;9.90;99.90
56044;DHT22;41912;51.022;3.664;2024-02-21T03:29:25;9.90;99.90
56044;DHT22;41912;51.022;3.664;2024-02-21T03:31:51;9.90;99.90
56044;DHT22;41912;51.022;3.664;2024-02-21T03:34:16;10.00;99.90
56044;DHT22;41912;51.022;3.664;2024-02-21T03:36:42;9.90;99.90
56044;DHT22;41912;51.022;3.664;2024-02-21T03:39:08;10.20;99.90
56044;DHT22;41912;51.022;3.664;2024-02-21T03:41:35;10.00;99.90
56044;DHT22;41912;51.022;3.664;2024-02-21T03:44:01;10.00;99.90
56044;DHT22;41912;51.022;3.664;2024-02-21T03:46:28;10.00;99.90
56044;DHT22;41912;51.022;3.664;2024-02-21T03:48:53;9.90;99.90
56044;DHT22;41912;51.022;3.664;2024-02-21T03:51:19;10.00;99.90
56044;DHT22;41912;51.022;3.664;2024-02-21T03:53:45;9.90;99.90
56044;DHT22;41912;51.022;3.664;2024-02-21T03:56:10;10.00;99.90
56044;DHT22;41912;51.022;3.664;2024-02-21T03:58:36;9.90;99.90
56044;DHT22;41912;51.022;3.664;2024-02-21T04:01:02;9.90;99.90
56044;DHT22;41912;51.022;3.664;2024-02-21T04:03:28;10.00;99.90
56044;DHT22;41912;51.022;3.664;2024-02-21T04:05:54;10.00;99.90
56044;DHT22;41912;51.022;3.664;2024-02-21T04:08:21;9.90;99.90
56044;DHT22;41912;51.022;3.664;2024-02-21T04:10:47;9.90;99.90
56044;DHT22;41912;51.022;3.664;2024-02-21T04:13:12;9.90;99.90
56044;DHT22;41912;51.022;3.664;2024-02-21T04:15:38;9.90;99.90
56044;DHT22;41912;51.022;3.664;2024-02-21T04:18:04;9.90;99.90
56044;DHT22;41912;51.022;3.664;2024-02-21T04:20:29;9.80;99.90
56044;DHT22;41912;51.022;3.664;2024-02-21T04:22:56;9.80;99.90
56044;DHT22;41912;51.022;3.664;2024-02-21T04:25:22;9.90;99.90
56044;DHT22;41912;51.022;3.664;2024-02-21T04:27:47;9.80;99.90
56044;DHT22;41912;51.022;3.664;2024-02-21T04:30:13;9.90;99.90
56044;DHT22;41912;51.022;3.664;2024-02-21T04:32:39;9.80;99.90
56044;DHT22;41912;51.022;3.664;2024-02-21T04:35:06;9.80;99.90
56044;DHT22;41912;51.022;3.664;2024-02-21T04:37:32;9.80;99.90
56044;DHT22;41912;51.022;3.664;2024-02-21T04:39:58;9.80;99.90
56044;DHT22;41912;51.022;3.664;2024-02-21T04:42:23;9.80;99.90
56044;DHT22;41912;51.022;3.664;2024-02-21T04:44:49;9.80;99.90
56044;DHT22;41912;51.022;3.664;2024-02-21T04:47:14;9.80;99.90
56044;DHT22;41912;51.022;3.664;2024-02-21T04:49:40;9.80;99.90
56044;DHT22;41912;51.022;3.664;2024-02-21T04:52:06;9.80;99.90
56044;DHT22;41912;51.022;3.664;2024-02-21T04:54:31;9.80;99.90
56044;DHT22;41912;51.022;3.664;2024-02-21T04:56:57;9.80;99.90
56044;DHT22;41912;51.022;3.664;2024-02-21T04:59:22;9.80;99.90
56044;DHT22;41912;51.022;3.664;2024-02-21T05:01:48;9.80;99.90
56044;DHT22;41912;51.022;3.664;2024-02-21T05:04:14;9.80;99.90
56044;DHT22;41912;51.022;3.664;2024-02-21T05:06:40;9.80;99.90
56044;DHT22;41912;51.022;3.664;2024-02-21T05:09:07;9.90;99.90
56044;DHT22;41912;51.022;3.664;2024-02-21T05:11:36;9.90;99.90
56044;DHT22;41912;51.022;3.664;2024-02-21T05:14:03;9.80;99.90
56044;DHT22;41912;51.022;3.664;2024-02-21T05:16:29;9.80;99.90
56044;DHT22;41912;51.022;3.664;2024-02-21T05:18:55;9.80;99.90
56044;DHT22;41912;51.022;3.664;2024-02-21T05:21:25;9.80;99.90
56044;DHT22;41912;51.022;3.664;2024-02-21T05:23:51;9.80;99.90
56044;DHT22;41912;51.022;3.664;2024-02-21T05:26:24;9.70;99.90
56044;DHT22;41912;51.022;3.664;2024-02-21T05:28:50;9.70;99.90
56044;DHT22;41912;51.022;3.664;2024-02-21T05:31:17;9.70;99.90
56044;DHT22;41912;51.022;3.664;2024-02-21T05:33:43;9.80;99.90
56044;DHT22;41912;51.022;3.664;2024-02-21T05:36:09;9.80;99.90
56044;DHT22;41912;51.022;3.664;2024-02-21T05:38:35;9.70;99.90
56044;DHT22;41912;51.022;3.664;2024-02-21T05:41:01;9.70;99.90
56044;DHT22;41912;51.022;3.664;2024-02-21T05:43:27;9.70;99.90
56044;DHT22;41912;51.022;3.664;2024-02-21T05:45:52;9.70;99.90
56044;DHT22;41912;51.022;3.664;2024-02-21T05:48:19;9.70;99.90
56044;DHT22;41912;51.022;3.664;2024-02-21T05:50:45;9.80;99.90
56044;DHT22;41912;51.022;3.664;2024-02-21T05:53:10;9.80;99.90
56044;DHT22;41912;51.022;3.664;2024-02-21T05:55:36;9.70;99.90
56044;DHT22;41912;51.022;3.664;2024-02-21T05:58:02;9.80;99.90
56044;DHT22;41912;51.022;3.664;2024-02-21T06:00:28;9.80;99.90
56044;DHT22;41912;51.022;3.664;2024-02-21T06:02:55;9.70;99.90
56044;DHT22;41912;51.022;3.664;2024-02-21T06:05:20;9.70;99.90
56044;DHT22;41912;51.022;3.664;2024-02-21T06:07:46;9.70;99.90
56044;DHT22;41912;51.022;3.664;2024-02-21T06:10:15;9.80;99.90
56044;DHT22;41912;51.022;3.664;2024-02-21T06:12:40;10.00;99.90
56044;DHT22;41912;51.022;3.664;2024-02-21T06:15:06;9.80;99.90
56044;DHT22;41912;51.022;3.664;2024-02-21T06:17:32;9.80;99.90
56044;DHT22;41912;51.022;3.664;2024-02-21T06:19:57;9.80;99.90
56044;DHT22;41912;51.022;3.664;2024-02-21T06:22:23;9.90;99.90
56044;DHT22;41912;51.022;3.664;2024-02-21T06:24:49;9.90;99.90
56044;DHT22;41912;51.022;3.664;2024-02-21T06:27:15;9.90;99.90
56044;DHT22;41912;51.022;3.664;2024-02-21T06:29:41;9.80;99.90
56044;DHT22;41912;51.022;3.664;2024-02-21T06:32:07;9.80;99.90
56044;DHT22;41912;51.022;3.664;2024-02-21T06:34:33;9.90;99.90
56044;DHT22;41912;51.022;3.664;2024-02-21T06:36:59;9.90;99.90
56044;DHT22;41912;51.022;3.664;2024-02-21T06:39:24;9.90;99.90
56044;DHT22;41912;51.022;3.664;2024-02-21T06:41:50;9.80;99.90
56044;DHT22;41912;51.022;3.664;2024-02-21T06:44:17;9.80;99.90
56044;DHT22;41912;51.022;3.664;2024-02-21T06:46:43;9.90;99.90
56044;DHT22;41912;51.022;3.664;2024-02-21T06:49:08;9.80;99.90
56044;DHT22;41912;51.022;3.664;2024-02-21T06:51:34;9.80;99.90
56044;DHT22;41912;51.022;3.664;2024-02-21T06:54:00;9.80;99.90
56044;DHT22;41912;51.022;3.664;2024-02-21T06:56:26;9.90;99.90
56044;DHT22;41912;51.022;3.664;2024-02-21T06:58:55;9.90;99.90
56044;DHT22;41912;51.022;3.664;2024-02-21T07:01:21;9.90;99.90
56044;DHT22;41912;51.022;3.664;2024-02-21T07:03:47;9.90;99.90
56044;DHT22;41912;51.022;3.664;2024-02-21T07:06:13;9.90;99.90
56044;DHT22;41912;51.022;3.664;2024-02-21T07:08:38;9.80;99.90
56044;DHT22;41912;51.022;3.664;2024-02-21T07:11:04;9.80;99.90
56044;DHT22;41912;51.022;3.664;2024-02-21T07:13:30;9.80;99.90
56044;DHT22;41912;51.022;3.664;2024-02-21T07:15:56;9.80;99.90
56044;DHT22;41912;51.022;3.664;2024-02-21T07:18:21;9.80;99.90
56044;DHT22;41912;51.022;3.664;2024-02-21T07:20:47;9.90;99.90
56044;DHT22;41912;51.022;3.664;2024-02-21T07:23:13;9.80;99.90
56044;DHT22;41912;51.022;3.664;2024-02-21T07:25:39;9.80;99.90
56044;DHT22;41912;51.022;3.664;2024-02-21T07:28:05;9.80;99.90
56044;DHT22;41912;51.022;3.664;2024-02-21T07:30:31;9.90;99.90
56044;DHT22;41912;51.022;3.664;2024-02-21T07:32:56;9.80;99.90
56044;DHT22;41912;51.022;3.664;2024-02-21T07:35:22;9.80;99.90
56044;DHT22;41912;51.022;3.664;2024-02-21T07:37:48;9.80;99.90
56044;DHT22;41912;51.022;3.664;2024-02-21T07:40:15;9.80;99.90
56044;DHT22;41912;51.022;3.664;2024-02-21T07:42:41;9.90;99.90
56044;DHT22;41912;51.022;3.664;2024-02-21T07:45:10;9.90;99.90
56044;DHT22;41912;51.022;3.664;2024-02-21T07:47:36;9.90;99.90
56044;DHT22;41912;51.022;3.664;2024-02-21T07:50:03;9.90;99.90
56044;DHT22;41912;51.022;3.664;2024-02-21T07:52:28;9.90;99.90
56044;DHT22;41912;51.022;3.664;2024-02-21T07:54:54;9.90;99.90
56044;DHT22;41912;51.022;3.664;2024-02-21T07:57:20;10.00;99.90
56044;DHT22;41912;51.022;3.664;2024-02-21T07:59:45;10.00;99.90
56044;DHT22;41912;51.022;3.664;2024-02-21T08:02:16;10.00;99.90
56044;DHT22;41912;51.022;3.664;2024-02-21T08:04:42;10.00;99.90
56044;DHT22;41912;51.022;3.664;2024-02-21T08:07:09;10.00;99.90
56044;DHT22;41912;51.022;3.664;2024-02-21T08:09:35;10.00;99.90
56044;DHT22;41912;51.022;3.664;2024-02-21T08:12:02;10.00;99.90
56044;DHT22;41912;51.022;3.664;2024-02-21T08:14:27;10.10;99.90
56044;DHT22;41912;51.022;3.664;2024-02-21T08:16:53;10.10;99.90
56044;DHT22;41912;51.022;3.664;2024-02-21T08:19:20;10.10;99.90
56044;DHT22;41912;51.022;3.664;2024-02-21T08:21:46;10.10;99.90
56044;DHT22;41912;51.022;3.664;2024-02-21T08:24:15;10.00;99.90
56044;DHT22;41912;51.022;3.664;2024-02-21T08:26:41;10.10;99.90
56044;DHT22;41912;51.022;3.664;2024-02-21T08:29:07;10.10;99.90
56044;DHT22;41912;51.022;3.664;2024-02-21T08:31:33;10.10;99.90
56044;DHT22;41912;51.022;3.664;2024-02-21T08:34:02;10.10;99.90
56044;DHT22;41912;51.022;3.664;2024-02-21T08:36:29;10.10;99.90
56044;DHT22;41912;51.022;3.664;2024-02-21T08:38:56;10.10;99.90
56044;DHT22;41912;51.022;3.664;2024-02-21T08:41:25;10.10;99.90
56044;DHT22;41912;51.022;3.664;2024-02-21T08:43:52;10.20;99.90
56044;DHT22;41912;51.022;3.664;2024-02-21T08:46:22;10.10;99.90
56044;DHT22;41912;51.022;3.664;2024-02-21T08:48:51;10.10;99.90
56044;DHT22;41912;51.022;3.664;2024-02-21T08:51:17;10.10;99.90
56044;DHT22;41912;51.022;3.664;2024-02-21T08:53:44;10.10;99.90
56044;DHT22;41912;51.022;3.664;2024-02-21T08:56:09;10.00;99.90
56044;DHT22;41912;51.022;3.664;2024-02-21T08:58:36;10.00;99.90
56044;DHT22;41912;51.022;3.664;2024-02-21T09:01:05;10.00;99.90
56044;DHT22;41912;51.022;3.664;2024-02-21T09:03:32;9.90;99.90
56044;DHT22;41912;51.022;3.664;2024-02-21T09:05:59;10.00;99.90
56044;DHT22;41912;51.022;3.664;2024-02-21T09:08:25;10.00;99.90
56044;DHT22;41912;51.022;3.664;2024-02-21T09:10:52;10.00;99.90
56044;DHT22;41912;51.022;3.664;2024-02-21T09:13:17;10.10;99.90
56044;DHT22;41912;51.022;3.664;2024-02-21T09:15:43;10.00;99.90
56044;DHT22;41912;51.022;3.664;2024-02-21T09:18:09;10.10;99.90
56044;DHT22;41912;51.022;3.664;2024-02-21T09:20:35;10.10;99.90
56044;DHT22;41912;51.022;3.664;2024-02-21T09:23:00;10.20;99.90
56044;DHT22;41912;51.022;3.664;2024-02-21T09:25:26;10.20;99.90
56044;DHT22;41912;51.022;3.664;2024-02-21T09:27:54;10.20;99.90
56044;DHT22;41912;51.022;3.664;2024-02-21T09:30:20;10.20;99.90
56044;DHT22;41912;51.022;3.664;2024-02-21T09:32:46;10.30;99.90
56044;DHT22;41912;51.022;3.664;2024-02-21T09:35:11;10.20;99.90
56044;DHT22;41912;51.022;3.664;2024-02-21T09:37:41;10.10;99.90
56044;DHT22;41912;51.022;3.664;2024-02-21T09:40:07;10.10;99.90
56044;DHT22;41912;51.022;3.664;2024-02-21T09:42:40;10.10;99.90
56044;DHT22;41912;51.022;3.664;2024-02-21T09:45:23;10.10;99.90
56044;DHT22;41912;51.022;3.664;2024-02-21T09:50:34;10.10;99.90
56044;DHT22;41912;51.022;3.664;2024-02-21T09:53:02;10.20;99.90
56044;DHT22;41912;51.022;3.664;2024-02-21T09:55:31;10.10;99.90
56044;DHT22;41912;51.022;3.664;2024-02-21T09:58:03;10.10;99.90
56044;DHT22;41912;51.022;3.664;2024-02-21T10:00:30;10.10;99.90
56044;DHT22;41912;51.022;3.664;2024-02-21T10:02:55;10.20;99.90
56044;DHT22;41912;51.022;3.664;2024-02-21T10:05:21;10.20;99.90
56044;DHT22;41912;51.022;3.664;2024-02-21T10:07:48;10.20;99.90
56044;DHT22;41912;51.022;3.664;2024-02-21T10:10:14;10.30;99.90
56044;DHT22;41912;51.022;3.664;2024-02-21T10:12:51;10.30;99.90
56044;DHT22;41912;51.022;3.664;2024-02-21T10:15:24;10.40;99.90
56044;DHT22;41912;51.022;3.664;2024-02-21T10:17:58;10.30;99.90
56044;DHT22;41912;51.022;3.664;2024-02-21T10:20:25;10.40;99.90
56044;DHT22;41912;51.022;3.664;2024-02-21T10:23:03;10.40;99.90
56044;DHT22;41912;51.022;3.664;2024-02-21T10:25:34;10.40;99.90
56044;DHT22;41912;51.022;3.664;2024-02-21T10:27:59;10.50;99.90
56044;DHT22;41912;51.022;3.664;2024-02-21T10:30:25;10.40;99.90
56044;DHT22;41912;51.022;3.664;2024-02-21T10:32:51;10.40;99.90
56044;DHT22;41912;51.022;3.664;2024-02-21T10:35:32;10.40;99.90
56044;DHT22;41912;51.022;3.664;2024-02-21T10:37:59;10.40;99.90
56044;DHT22;41912;51.022;3.664;2024-02-21T10:40:29;10.50;99.90
56044;DHT22;41912;51.022;3.664;2024-02-21T10:43:01;10.50;99.90
56044;DHT22;41912;51.022;3.664;2024-02-21T10:45:39;10.50;99.90
56044;DHT22;41912;51.022;3.664;2024-02-21T10:48:14;10.60;99.90
56044;DHT22;41912;51.022;3.664;2024-02-21T10:51:03;10.50;99.90
56044;DHT22;41912;51.022;3.664;2024-02-21T10:58:52;10.60;99.90
56044;DHT22;41912;51.022;3.664;2024-02-21T11:01:18;10.60;99.90
56044;DHT22;41912;51.022;3.664;2024-02-21T11:03:48;10.60;99.90
56044;DHT22;41912;51.022;3.664;2024-02-21T11:06:15;10.60;99.90
56044;DHT22;41912;51.022;3.664;2024-02-21T11:08:41;10.60;99.90
56044;DHT22;41912;51.022;3.664;2024-02-21T11:11:07;10.60;99.90
56044;DHT22;41912;51.022;3.664;2024-02-21T11:13:37;10.50;99.90
56044;DHT22;41912;51.022;3.664;2024-02-21T11:16:07;10.50;99.90
56044;DHT22;41912;51.022;3.664;2024-02-21T11:18:34;10.50;99.90
56044;DHT22;41912;51.022;3.664;2024-02-21T11:21:00;10.50;99.90
56044;DHT22;41912;51.022;3.664;2024-02-21T11:23:28;10.50;99.90
56044;DHT22;41912;51.022;3.664;2024-02-21T11:26:22;10.50;99.90
56044;DHT22;41912;51.022;3.664;2024-02-21T11:29:01;10.50;99.90
56044;DHT22;41912;51.022;3.664;2024-02-21T11:31:44;10.50;99.90
56044;DHT22;41912;51.022;3.664;2024-02-21T11:34:17;10.50;99.90
56044;DHT22;41912;51.022;3.664;2024-02-21T11:36:53;10.50;99.90
56044;DHT22;41912;51.022;3.664;2024-02-21T11:39:19;10.40;99.90
56044;DHT22;41912;51.022;3.664;2024-02-21T11:41:47;10.40;99.90
56044;DHT22;41912;51.022;3.664;2024-02-21T11:44:13;10.40;99.90
56044;DHT22;41912;51.022;3.664;2024-02-21T11:46:39;10.40;99.90
56044;DHT22;41912;51.022;3.664;2024-02-21T11:49:05;10.40;99.90
56044;DHT22;41912;51.022;3.664;2024-02-21T11:51:31;10.40;99.90
56044;DHT22;41912;51.022;3.664;2024-02-21T11:53:57;10.40;99.90
56044;DHT22;41912;51.022;3.664;2024-02-21T11:56:23;10.50;99.90
56044;DHT22;41912;51.022;3.664;2024-02-21T11:58:48;10.40;99.90
56044;DHT22;41912;51.022;3.664;2024-02-21T12:01:14;10.40;99.90
56044;DHT22;41912;51.022;3.664;2024-02-21T12:03:42;10.40;99.90
56044;DHT22;41912;51.022;3.664;2024-02-21T12:06:15;10.50;99.90
56044;DHT22;41912;51.022;3.664;2024-02-21T12:08:45;10.40;99.90
56044;DHT22;41912;51.022;3.664;2024-02-21T12:11:37;10.40;99.90
56044;DHT22;41912;51.022;3.664;2024-02-21T12:14:03;10.40;99.90
56044;DHT22;41912;51.022;3.664;2024-02-21T12:16:31;10.30;99.90
56044;DHT22;41912;51.022;3.664;2024-02-21T12:18:58;10.40;99.90
56044;DHT22;41912;51.022;3.664;2024-02-21T12:21:31;10.40;99.90
56044;DHT22;41912;51.022;3.664;2024-02-21T12:23:58;10.40;99.90
56044;DHT22;41912;51.022;3.664;2024-02-21T12:26:25;10.50;99.90
56044;DHT22;41912;51.022;3.664;2024-02-21T12:28:53;10.50;99.90
56044;DHT22;41912;51.022;3.664;2024-02-21T12:31:18;10.60;99.90
56044;DHT22;41912;51.022;3.664;2024-02-21T12:33:44;10.60;99.90
56044;DHT22;41912;51.022;3.664;2024-02-21T12:36:10;10.60;99.90
56044;DHT22;41912;51.022;3.664;2024-02-21T12:38:36;10.60;99.90
56044;DHT22;41912;51.022;3.664;2024-02-21T12:41:02;10.60;99.90
56044;DHT22;41912;51.022;3.664;2024-02-21T12:43:28;10.60;99.90
56044;DHT22;41912;51.022;3.664;2024-02-21T12:45:54;10.70;99.90
56044;DHT22;41912;51.022;3.664;2024-02-21T12:48:20;10.80;99.90
56044;DHT22;41912;51.022;3.664;2024-02-21T12:50:50;10.70;99.90
56044;DHT22;41912;51.022;3.664;2024-02-21T12:53:17;10.80;99.90
56044;DHT22;41912;51.022;3.664;2024-02-21T12:55:45;10.80;99.90
56044;DHT22;41912;51.022;3.664;2024-02-21T12:58:10;10.80;99.90
56044;DHT22;41912;51.022;3.664;2024-02-21T13:00:36;10.80;99.90
56044;DHT22;41912;51.022;3.664;2024-02-21T13:03:03;10.80;99.90
56044;DHT22;41912;51.022;3.664;2024-02-21T13:05:29;10.80;99.90
56044;DHT22;41912;51.022;3.664;2024-02-21T13:07:54;10.80;99.90
56044;DHT22;41912;51.022;3.664;2024-02-21T13:10:20;10.80;99.90
56044;DHT22;41912;51.022;3.664;2024-02-21T13:12:47;10.80;99.90
56044;DHT22;41912;51.022;3.664;2024-02-21T13:15:12;10.70;99.90
56044;DHT22;41912;51.022;3.664;2024-02-21T13:17:38;10.70;99.90
56044;DHT22;41912;51.022;3.664;2024-02-21T13:20:05;10.80;99.90
56044;DHT22;41912;51.022;3.664;2024-02-21T13:22:31;10.80;99.90
56044;DHT22;41912;51.022;3.664;2024-02-21T13:24:57;10.80;99.90
56044;DHT22;41912;51.022;3.664;2024-02-21T13:27:22;10.70;99.90
56044;DHT22;41912;51.022;3.664;2024-02-21T13:29:48;10.70;99.90
56044;DHT22;41912;51.022;3.664;2024-02-21T13:32:14;10.70;99.90
56044;DHT22;41912;51.022;3.664;2024-02-21T13:34:41;10.70;99.90
56044;DHT22;41912;51.022;3.664;2024-02-21T13:37:07;10.80;99.90
56044;DHT22;41912;51.022;3.664;2024-02-21T13:39:35;10.70;99.90
56044;DHT22;41912;51.022;3.664;2024-02-21T13:42:01;10.80;99.90
56044;DHT22;41912;51.022;3.664;2024-02-21T13:44:27;10.80;99.90
56044;DHT22;41912;51.022;3.664;2024-02-21T13:46:53;10.80;99.90
56044;DHT22;41912;51.022;3.664;2024-02-21T13:49:19;10.70;99.90
56044;DHT22;41912;51.022;3.664;2024-02-21T13:51:44;10.80;99.90
56044;DHT22;41912;51.022;3.664;2024-02-21T13:54:11;10.90;99.90
56044;DHT22;41912;51.022;3.664;2024-02-21T13:56:39;10.70;99.90
56044;DHT22;41912;51.022;3.664;2024-02-21T13:59:05;10.80;99.90
56044;DHT22;41912;51.022;3.664;2024-02-21T14:01:30;10.80;99.90
56044;DHT22;41912;51.022;3.664;2024-02-21T14:03:57;10.80;99.90
56044;DHT22;41912;51.022;3.664;2024-02-21T14:06:23;10.80;99.90
56044;DHT22;41912;51.022;3.664;2024-02-21T14:08:48;10.80;99.90
56044;DHT22;41912;51.022;3.664;2024-02-21T14:11:14;10.70;99.90
56044;DHT22;41912;51.022;3.664;2024-02-21T14:13:39;10.70;99.90
56044;DHT22;41912;51.022;3.664;2024-02-21T14:16:10;10.70;99.90
56044;DHT22;41912;51.022;3.664;2024-02-21T14:18:41;10.70;99.90
56044;DHT22;41912;51.022;3.664;2024-02-21T14:21:08;10.70;99.90
56044;DHT22;41912;51.022;3.664;2024-02-21T14:23:38;10.70;99.90
56044;DHT22;41912;51.022;3.664;2024-02-21T14:26:05;10.70;99.90
56044;DHT22;41912;51.022;3.664;2024-02-21T14:28:32;10.70;99.90
56044;DHT22;41912;51.022;3.664;2024-02-21T14:30:59;10.70;99.90
56044;DHT22;41912;51.022;3.664;2024-02-21T14:33:28;10.60;99.90
56044;DHT22;41912;51.022;3.664;2024-02-21T14:35:55;10.60;99.90
56044;DHT22;41912;51.022;3.664;2024-02-21T14:38:20;10.60;99.90
56044;DHT22;41912;51.022;3.664;2024-02-21T14:40:46;10.50;99.90
56044;DHT22;41912;51.022;3.664;2024-02-21T14:43:12;10.50;99.90
56044;DHT22;41912;51.022;3.664;2024-02-21T14:45:37;10.50;99.90
56044;DHT22;41912;51.022;3.664;2024-02-21T14:48:07;10.50;99.90
56044;DHT22;41912;51.022;3.664;2024-02-21T14:50:32;10.50;99.90
56044;DHT22;41912;51.022;3.664;2024-02-21T14:52:58;10.50;99.90
56044;DHT22;41912;51.022;3.664;2024-02-21T14:55:24;10.50;99.90
56044;DHT22;41912;51.022;3.664;2024-02-21T14:57:50;10.50;99.90
56044;DHT22;41912;51.022;3.664;2024-02-21T15:00:16;10.50;99.90
56044;DHT22;41912;51.022;3.664;2024-02-21T15:02:41;10.50;99.90
56044;DHT22;41912;51.022;3.664;2024-02-21T15:05:08;10.60;99.90
56044;DHT22;41912;51.022;3.664;2024-02-21T15:07:34;10.50;99.90
56044;DHT22;41912;51.022;3.664;2024-02-21T15:10:00;10.50;99.90
56044;DHT22;41912;51.022;3.664;2024-02-21T15:12:25;10.50;99.90
56044;DHT22;41912;51.022;3.664;2024-02-21T15:14:51;10.50;99.90
56044;DHT22;41912;51.022;3.664;2024-02-21T15:17:17;10.40;99.90
56044;DHT22;41912;51.022;3.664;2024-02-21T15:19:44;10.50;99.90
56044;DHT22;41912;51.022;3.664;2024-02-21T15:22:13;10.50;99.90
56044;DHT22;41912;51.022;3.664;2024-02-21T15:24:40;10.50;99.90
56044;DHT22;41912;51.022;3.664;2024-02-21T15:27:06;10.50;99.90
56044;DHT22;41912;51.022;3.664;2024-02-21T15:29:32;10.50;99.90
56044;DHT22;41912;51.022;3.664;2024-02-21T15:31:57;10.50;99.90
56044;DHT22;41912;51.022;3.664;2024-02-21T15:34:23;10.50;99.90
56044;DHT22;41912;51.022;3.664;2024-02-21T15:36:49;10.40;99.90
56044;DHT22;41912;51.022;3.664;2024-02-21T15:39:14;10.40;99.90
56044;DHT22;41912;51.022;3.664;2024-02-21T15:41:40;10.30;99.90